Time;durP1;ratioP1;P1;durP2;ratioP2;P2;SDS_P1;SDS_P2;PMS_P1;PMS_P2;Temp;Humidity;BMP_temperature;BMP_pressure;BME280_temperature;BME280_humidity;BME280_pressure;Samples;Min_cycle;Max_cycle;Signal;HPM_P1;HPM_P2
2022/08/17 00:00:19;;;;;;;27.58;22.95;;;20.70;99.90;;;;;;5072941;28;20093;-82
2022/08/17 00:03:17;;;;;;;31.00;22.58;;;20.70;99.90;;;;;;5073449;28;20052;-81
2022/08/17 00:05:58;;;;;;;29.05;22.33;;;20.70;99.90;;;;;;5047473;28;20066;-81
2022/08/17 00:08:34;;;;;;;30.13;22.90;;;20.70;99.90;;;;;;5073532;28;20092;-81
2022/08/17 00:11:00;;;;;;;27.83;22.40;;;20.70;99.90;;;;;;5056260;28;20044;-81
2022/08/17 00:13:28;;;;;;;27.60;21.27;;;20.70;99.90;;;;;;5055813;28;20503;-82
2022/08/17 00:15:58;;;;;;;28.13;22.52;;;20.60;99.90;;;;;;5073717;28;20048;-82
2022/08/17 00:18:26;;;;;;;26.92;21.40;;;20.60;99.90;;;;;;5073068;28;20129;-82
2022/08/17 00:20:53;;;;;;;27.55;21.52;;;20.60;99.90;;;;;;5072185;28;20091;-82
2022/08/17 00:23:19;;;;;;;26.05;21.45;;;20.60;99.90;;;;;;5055441;28;20052;-82
2022/08/17 00:25:45;;;;;;;27.17;21.27;;;20.60;99.90;;;;;;5056392;28;20041;-82
2022/08/17 00:28:14;;;;;;;27.98;22.48;;;20.60;99.90;;;;;;5072041;28;20079;-82
2022/08/17 00:30:42;;;;;;;26.42;21.42;;;20.60;99.90;;;;;;5072111;28;20119;-82
2022/08/17 00:33:18;;;;;;;28.70;22.67;;;20.50;99.90;;;;;;5055712;28;20044;-82
2022/08/17 00:35:45;;;;;;;31.25;22.38;;;20.50;99.90;;;;;;5055951;28;20131;-81
2022/08/17 00:38:12;;;;;;;31.30;22.70;;;20.50;99.90;;;;;;5072030;28;20044;-80
2022/08/17 00:40:44;;;;;;;26.35;21.85;;;20.50;99.90;;;;;;5057660;28;20041;-81
2022/08/17 00:43:17;;;;;;;28.10;22.10;;;20.50;99.90;;;;;;5077060;28;20101;-81
2022/08/17 00:45:44;;;;;;;30.70;23.15;;;20.40;99.90;;;;;;5076809;28;20044;-81
2022/08/17 00:48:11;;;;;;;27.40;22.45;;;20.50;99.90;;;;;;5075588;28;20056;-81
2022/08/17 00:50:40;;;;;;;26.52;21.48;;;20.40;99.90;;;;;;5059190;28;20135;-81
2022/08/17 00:53:06;;;;;;;27.75;21.58;;;20.40;99.90;;;;;;5076029;28;20051;-81
2022/08/17 00:55:32;;;;;;;28.02;23.50;;;20.40;99.90;;;;;;5059966;28;20068;-82
2022/08/17 00:58:01;;;;;;;26.48;21.65;;;20.30;99.90;;;;;;5076025;28;20040;-81
2022/08/17 01:00:36;;;;;;;29.73;23.23;;;20.30;99.90;;;;;;5076567;28;20048;-82
2022/08/17 01:03:12;;;;;;;31.75;23.80;;;20.30;99.90;;;;;;5075949;28;20434;-81
2022/08/17 01:05:39;;;;;;;27.05;21.80;;;20.30;99.90;;;;;;5076688;28;20361;-81
2022/08/17 01:08:11;;;;;;;28.52;22.88;;;20.30;99.90;;;;;;5075586;28;20098;-81
2022/08/17 01:10:46;;;;;;;32.05;22.35;;;20.30;99.90;;;;;;5075867;28;20094;-81
2022/08/17 01:13:13;;;;;;;28.52;22.90;;;20.20;99.90;;;;;;5058852;28;20055;-81
2022/08/17 01:15:45;;;;;;;28.60;22.63;;;20.20;99.90;;;;;;5059042;28;20056;-81
2022/08/17 01:18:12;;;;;;;30.75;24.38;;;20.20;99.90;;;;;;5058902;28;20041;-82
2022/08/17 01:20:45;;;;;;;29.85;23.67;;;20.20;99.90;;;;;;5058667;28;20050;-80
2022/08/17 01:23:11;;;;;;;30.38;22.88;;;20.20;99.90;;;;;;5075024;28;20128;-80
2022/08/17 01:25:38;;;;;;;30.30;23.10;;;20.20;99.90;;;;;;5041998;28;20127;-81
2022/08/17 01:28:04;;;;;;;29.20;22.50;;;20.10;99.90;;;;;;5076092;28;20045;-81
2022/08/17 01:30:31;;;;;;;30.10;23.13;;;20.10;99.90;;;;;;5075848;28;20056;-81
2022/08/17 01:32:56;;;;;;;29.85;23.30;;;20.00;99.90;;;;;;5058480;28;20526;-81
2022/08/17 01:35:22;;;;;;;31.20;24.60;;;20.10;99.90;;;;;;5058414;28;20052;-81
2022/08/17 01:37:48;;;;;;;30.20;23.52;;;20.00;99.90;;;;;;5058224;28;20105;-81
2022/08/17 01:40:21;;;;;;;29.33;23.27;;;20.00;99.90;;;;;;5058214;28;20052;-81
2022/08/17 01:42:50;;;;;;;30.73;23.38;;;20.00;99.90;;;;;;5075146;28;20101;-81
2022/08/17 01:45:22;;;;;;;33.55;25.02;;;20.00;99.90;;;;;;5074888;28;20067;-81
2022/08/17 01:47:49;;;;;;;32.63;24.08;;;20.00;99.90;;;;;;5074255;28;20059;-81
2022/08/17 01:50:19;;;;;;;28.02;23.05;;;20.00;99.90;;;;;;5074296;28;20061;-81
2022/08/17 01:52:48;;;;;;;32.72;24.80;;;20.00;99.90;;;;;;5075655;28;20122;-81
2022/08/17 01:55:17;;;;;;;33.88;25.92;;;20.00;99.90;;;;;;5058030;28;20041;-81
2022/08/17 01:57:44;;;;;;;32.05;23.98;;;20.00;99.90;;;;;;5058189;28;20049;-81
2022/08/17 02:00:12;;;;;;;30.63;24.50;;;20.00;99.90;;;;;;5057660;28;20131;-81
2022/08/17 02:02:39;;;;;;;33.90;23.83;;;20.00;99.90;;;;;;5074615;28;20044;-81
2022/08/17 02:05:06;;;;;;;32.30;25.30;;;20.00;99.90;;;;;;5074110;28;20064;-81
2022/08/17 02:07:32;;;;;;;31.17;25.08;;;20.00;99.90;;;;;;5057743;28;20098;-82
2022/08/17 02:09:57;;;;;;;33.35;24.98;;;20.00;99.90;;;;;;5057828;28;20044;-81
2022/08/17 02:12:23;;;;;;;31.85;24.13;;;20.00;99.90;;;;;;5057667;28;20128;-81
2022/08/17 02:14:50;;;;;;;29.60;24.58;;;20.00;99.90;;;;;;5057501;28;20117;-81
2022/08/17 02:17:16;;;;;;;32.42;25.38;;;20.00;99.90;;;;;;5057699;28;20409;-81
2022/08/17 02:19:42;;;;;;;32.08;24.80;;;20.00;99.90;;;;;;5074491;28;20048;-82
2022/08/17 02:22:08;;;;;;;29.42;22.98;;;20.00;99.90;;;;;;5074280;28;20074;-81
2022/08/17 02:24:36;;;;;;;32.80;24.27;;;20.00;99.90;;;;;;5074180;28;20055;-82
2022/08/17 02:27:02;;;;;;;32.33;24.05;;;20.00;99.90;;;;;;5074010;28;20049;-81
2022/08/17 02:29:28;;;;;;;29.17;23.00;;;19.90;99.90;;;;;;5058084;28;20097;-81
2022/08/17 02:31:55;;;;;;;29.80;24.52;;;19.90;99.90;;;;;;5074974;28;20040;-81
2022/08/17 02:34:20;;;;;;;34.55;25.30;;;19.90;99.90;;;;;;5057625;28;20049;-81
2022/08/17 02:36:46;;;;;;;31.05;24.15;;;19.90;99.90;;;;;;5057341;28;20059;-81
2022/08/17 02:39:13;;;;;;;30.48;24.67;;;19.90;99.90;;;;;;5057338;28;20174;-81
2022/08/17 02:41:39;;;;;;;29.95;24.60;;;19.90;99.90;;;;;;5057413;28;20052;-81
2022/08/17 02:44:06;;;;;;;36.97;25.80;;;19.80;99.90;;;;;;5056964;28;20133;-81
2022/08/17 02:46:32;;;;;;;33.10;24.15;;;19.90;99.90;;;;;;5073635;28;20053;-81
2022/08/17 02:48:58;;;;;;;32.13;24.20;;;19.80;99.90;;;;;;5057013;28;20048;-81
2022/08/17 02:51:25;;;;;;;31.02;24.33;;;19.80;99.90;;;;;;5057020;28;20083;-81
2022/08/17 02:53:51;;;;;;;33.97;24.98;;;19.80;99.90;;;;;;5073844;28;20102;-81
2022/08/17 02:56:17;;;;;;;32.85;24.05;;;19.80;99.90;;;;;;5075335;28;20392;-81
2022/08/17 02:58:42;;;;;;;34.42;25.48;;;19.80;99.90;;;;;;5073299;28;20098;-81
2022/08/17 03:01:09;;;;;;;35.03;25.58;;;19.80;99.90;;;;;;5057529;28;20057;-81
2022/08/17 03:03:36;;;;;;;31.98;25.77;;;19.80;99.90;;;;;;5073323;28;20057;-81
2022/08/17 03:06:02;;;;;;;34.55;25.13;;;19.80;99.90;;;;;;5056477;28;20095;-81
2022/08/17 03:08:28;;;;;;;30.92;23.60;;;19.80;99.90;;;;;;5073010;28;20053;-81
2022/08/17 03:10:54;;;;;;;32.17;25.00;;;19.80;99.90;;;;;;5073155;28;20048;-81
2022/08/17 03:13:21;;;;;;;34.65;25.50;;;19.70;99.90;;;;;;5057306;28;20056;-81
2022/08/17 03:15:48;;;;;;;35.55;26.10;;;19.70;99.90;;;;;;5072924;28;20053;-81
2022/08/17 03:18:16;;;;;;;36.53;25.73;;;19.70;99.90;;;;;;5073721;28;20044;-81
2022/08/17 03:20:42;;;;;;;34.60;26.00;;;19.70;99.90;;;;;;5073980;28;20044;-81
2022/08/17 03:23:09;;;;;;;33.42;25.20;;;19.70;99.90;;;;;;5073034;28;20400;-81
2022/08/17 03:25:41;;;;;;;33.67;26.48;;;19.70;99.90;;;;;;5073267;28;20044;-81
2022/08/17 03:28:08;;;;;;;34.60;25.15;;;19.70;99.90;;;;;;5072912;28;20571;-81
2022/08/17 03:30:36;;;;;;;35.83;26.98;;;19.70;99.90;;;;;;5072549;28;20044;-82
2022/08/17 03:33:04;;;;;;;33.63;24.35;;;19.60;99.90;;;;;;5073908;28;20044;-81
2022/08/17 03:35:33;;;;;;;33.38;24.83;;;19.60;99.90;;;;;;5072876;28;20127;-81
2022/08/17 03:37:59;;;;;;;36.08;25.77;;;19.60;99.90;;;;;;5073384;28;20053;-82
2022/08/17 03:40:25;;;;;;;35.58;25.17;;;19.60;99.90;;;;;;5072795;28;20546;-82
2022/08/17 03:42:53;;;;;;;35.50;26.70;;;19.60;99.90;;;;;;5056459;28;20037;-81
2022/08/17 03:56:42;;;;;;;32.90;26.17;;;19.50;99.90;;;;;;5073366;28;20048;-80
2022/08/17 03:59:15;;;;;;;33.28;26.10;;;19.40;99.90;;;;;;5056009;28;20282;-80
2022/08/17 04:01:43;;;;;;;34.72;26.20;;;19.40;99.90;;;;;;5072852;28;20052;-81
2022/08/17 04:04:09;;;;;;;35.60;26.67;;;19.40;99.90;;;;;;5072295;28;20052;-80
2022/08/17 04:06:35;;;;;;;33.40;24.27;;;19.40;99.90;;;;;;5073289;28;20064;-81
2022/08/17 04:09:01;;;;;;;37.40;27.17;;;19.40;99.90;;;;;;5072167;28;20377;-81
2022/08/17 04:11:27;;;;;;;35.72;25.30;;;19.40;99.90;;;;;;5073417;28;20055;-81
2022/08/17 04:13:52;;;;;;;37.83;26.83;;;19.40;99.90;;;;;;5072212;28;20473;-81
2022/08/17 04:16:19;;;;;;;36.97;26.98;;;19.40;99.90;;;;;;5075855;28;20036;-81
2022/08/17 04:18:44;;;;;;;35.22;26.38;;;19.40;99.90;;;;;;5078039;28;20044;-81
2022/08/17 04:21:10;;;;;;;40.20;27.02;;;19.40;99.90;;;;;;5076555;28;20166;-81
2022/08/17 04:23:36;;;;;;;45.33;29.40;;;19.40;99.90;;;;;;5059466;28;20040;-81
2022/08/17 04:26:02;;;;;;;38.55;28.63;;;19.40;99.90;;;;;;5075812;28;20103;-81
2022/08/17 04:28:29;;;;;;;40.90;29.70;;;19.40;99.90;;;;;;5059744;28;20143;-81
2022/08/17 04:30:55;;;;;;;43.83;30.92;;;19.40;99.90;;;;;;5076616;28;20064;-81
2022/08/17 04:33:24;;;;;;;48.83;32.90;;;19.40;99.90;;;;;;5059574;28;20052;-81
2022/08/17 04:35:56;;;;;;;49.42;32.83;;;19.40;99.90;;;;;;5076082;28;20041;-82
2022/08/17 04:38:25;;;;;;;51.58;33.72;;;19.40;99.90;;;;;;5059828;28;20036;-81
2022/08/17 04:43:37;;;;;;;45.67;32.92;;;19.40;99.90;;;;;;5076911;28;20052;-81
2022/08/17 04:46:09;;;;;;;45.42;32.25;;;19.40;99.90;;;;;;5059418;28;20048;-81
2022/08/17 04:48:41;;;;;;;45.45;33.28;;;19.50;99.90;;;;;;5075512;28;20049;-80
2022/08/17 04:51:16;;;;;;;43.53;31.07;;;19.50;99.90;;;;;;5060212;28;20460;-80
2022/08/17 04:53:45;;;;;;;42.78;31.35;;;19.50;99.90;;;;;;5076262;28;20045;-81
2022/08/17 04:56:16;;;;;;;41.10;31.35;;;19.50;99.90;;;;;;5076753;28;20037;-80
2022/08/17 04:58:48;;;;;;;46.75;32.65;;;19.60;99.90;;;;;;5059210;28;20537;-81
2022/08/17 05:01:15;;;;;;;48.78;33.17;;;19.60;99.90;;;;;;5075422;28;20127;-82
2022/08/17 05:03:42;;;;;;;46.20;33.80;;;19.60;99.90;;;;;;5059081;28;20049;-81
2022/08/17 05:06:08;;;;;;;47.15;34.05;;;19.60;99.90;;;;;;5075234;28;20449;-81
2022/08/17 05:08:35;;;;;;;48.63;33.55;;;19.60;99.90;;;;;;5075342;28;20213;-82
2022/08/17 05:11:00;;;;;;;50.72;34.88;;;19.70;99.90;;;;;;5075582;28;20502;-81
2022/08/17 05:13:30;;;;;;;55.45;35.60;;;19.70;99.90;;;;;;5058882;28;20066;-81
2022/08/17 05:15:59;;;;;;;56.13;37.05;;;19.70;99.90;;;;;;5058610;28;20045;-81
2022/08/17 05:18:25;;;;;;;52.75;34.50;;;19.70;99.90;;;;;;5075270;28;20059;-80
2022/08/17 05:20:52;;;;;;;50.10;34.03;;;19.70;99.90;;;;;;5058732;28;20053;-81
2022/08/17 05:23:19;;;;;;;52.63;34.75;;;19.70;99.90;;;;;;5076399;28;20044;-81
2022/08/17 05:25:47;;;;;;;49.58;34.85;;;19.80;99.90;;;;;;5075552;28;20052;-81
2022/08/17 05:28:16;;;;;;;50.38;35.45;;;19.80;99.90;;;;;;5058028;28;20033;-80
2022/08/17 05:30:42;;;;;;;53.80;35.47;;;19.80;99.90;;;;;;5058801;28;20046;-80
2022/08/17 05:33:15;;;;;;;50.67;33.75;;;19.80;99.90;;;;;;5075212;28;20049;-81
2022/08/17 05:35:48;;;;;;;46.88;34.00;;;19.80;99.90;;;;;;5075176;28;20548;-81
2022/08/17 05:38:15;;;;;;;;;;;19.80;99.90;;;;;;5059671;28;20144;-80
2022/08/17 05:40:42;;;;;;;51.88;34.03;;;19.90;99.90;;;;;;5058529;28;19921;-80
2022/08/17 05:43:11;;;;;;;50.03;32.95;;;19.90;99.90;;;;;;5058206;28;20057;-82
2022/08/17 05:45:40;;;;;;;45.40;32.20;;;19.90;99.90;;;;;;5075521;28;20052;-82
2022/08/17 05:48:06;;;;;;;50.95;31.92;;;19.90;99.90;;;;;;5075448;28;20044;-82
2022/08/17 05:50:59;;;;;;;48.22;32.05;;;19.90;99.90;;;;;;5041575;28;20093;-81
2022/08/17 05:53:31;;;;;;;49.10;31.60;;;19.90;99.90;;;;;;5058968;28;20117;-81
2022/08/17 05:56:05;;;;;;;;;;;19.90;99.90;;;;;;5075142;28;20048;-82
2022/08/17 05:59:13;;;;;;;43.20;29.30;;;19.90;99.90;;;;;;5075602;28;20050;-82
2022/08/17 06:01:47;;;;;;;42.30;28.55;;;20.00;99.90;;;;;;5075418;28;20045;-81
2022/08/17 06:04:27;;;;;;;40.25;26.95;;;19.90;99.90;;;;;;5074601;28;20080;-82
2022/08/17 06:07:16;;;;;;;37.78;26.60;;;19.90;99.90;;;;;;5074733;28;20110;-81
2022/08/17 06:09:53;;;;;;;35.13;25.08;;;19.90;99.90;;;;;;5055338;28;20114;-81
2022/08/17 06:12:40;;;;;;;37.03;24.25;;;19.90;99.90;;;;;;5075141;28;20121;-81
2022/08/17 06:15:41;;;;;;;34.63;22.67;;;19.90;99.90;;;;;;5058412;28;20370;-81
2022/08/17 06:18:09;;;;;;;33.35;22.42;;;19.90;99.90;;;;;;5074103;28;20479;-82
2022/08/17 06:20:42;;;;;;;35.00;23.63;;;19.90;99.90;;;;;;5074205;28;20053;-81
2022/08/17 06:23:13;;;;;;;33.00;23.48;;;19.90;99.90;;;;;;5058390;28;20059;-81
2022/08/17 06:25:46;;;;;;;33.75;23.17;;;19.90;99.90;;;;;;5057629;28;20048;-81
2022/08/17 06:28:24;;;;;;;30.88;23.02;;;19.90;99.90;;;;;;5074643;28;20472;-80
2022/08/17 06:30:57;;;;;;;34.72;23.38;;;19.90;99.90;;;;;;5074755;28;20044;-80
2022/08/17 06:33:29;;;;;;;29.70;21.98;;;20.00;99.90;;;;;;5073671;28;20052;-81
2022/08/17 06:36:13;;;;;;;30.65;22.30;;;19.90;99.90;;;;;;5057258;28;20056;-81
2022/08/17 06:39:09;;;;;;;30.98;23.17;;;19.90;99.90;;;;;;5056483;28;20076;-81
2022/08/17 06:41:53;;;;;;;29.63;21.45;;;19.90;99.90;;;;;;5074010;28;20106;-75
2022/08/17 06:44:21;;;;;;;29.83;21.27;;;19.90;99.90;;;;;;5075476;28;20040;-75
2022/08/17 06:46:51;;;;;;;27.83;19.70;;;19.90;99.90;;;;;;5074296;28;20052;-74
2022/08/17 06:49:29;;;;;;;25.85;19.70;;;19.90;99.90;;;;;;5074628;28;20381;-74
2022/08/17 06:52:05;;;;;;;28.17;20.70;;;19.80;99.90;;;;;;5073782;28;20062;-74
2022/08/17 06:54:37;;;;;;;28.80;21.20;;;19.80;99.90;;;;;;5074459;28;20047;-74
2022/08/17 06:57:17;;;;;;;25.97;19.70;;;19.80;99.90;;;;;;5074670;28;20055;-73
2022/08/17 06:59:52;;;;;;;29.55;21.95;;;19.80;99.90;;;;;;5074172;28;20381;-74
2022/08/17 07:02:35;;;;;;;27.23;20.92;;;19.80;99.90;;;;;;5074208;28;20497;-75
2022/08/17 07:05:03;;;;;;;31.38;21.65;;;19.70;99.90;;;;;;5072810;28;20527;-74
2022/08/17 07:10:15;;;;;;;30.10;21.35;;;19.70;99.90;;;;;;5073869;28;20496;-74
2022/08/17 07:12:43;;;;;;;26.80;21.15;;;19.70;99.90;;;;;;5074545;28;20056;-75
2022/08/17 07:15:18;;;;;;;28.05;20.05;;;19.70;99.90;;;;;;5072758;28;20089;-74
2022/08/17 07:17:45;;;;;;;30.52;21.98;;;19.70;99.90;;;;;;5073948;28;20041;-74
2022/08/17 07:20:16;;;;;;;30.25;20.88;;;19.70;99.90;;;;;;5073941;28;20063;-74
2022/08/17 07:22:57;;;;;;;27.13;20.55;;;19.70;99.90;;;;;;5074201;28;20127;-76
2022/08/17 07:25:24;;;;;;;29.25;21.02;;;19.70;99.90;;;;;;5073918;28;20084;-74
2022/08/17 07:27:58;;;;;;;23.77;17.65;;;19.70;99.90;;;;;;5056211;28;20044;-74
2022/08/17 07:30:40;;;;;;;29.58;19.67;;;19.60;99.90;;;;;;5073801;28;20051;-74
2022/08/17 07:33:18;;;;;;;24.10;17.90;;;19.60;99.90;;;;;;5074509;28;20048;-74
2022/08/17 07:35:47;;;;;;;30.88;19.90;;;19.50;99.90;;;;;;5073768;28;20048;-77
2022/08/17 07:38:23;;;;;;;43.42;23.27;;;19.40;99.90;;;;;;5073106;28;20040;-72
2022/08/17 07:41:04;;;;;;;33.28;22.27;;;19.40;99.90;;;;;;5073875;28;20055;-72
2022/08/17 07:43:39;;;;;;;38.88;24.85;;;19.40;99.90;;;;;;5074635;28;20048;-71
2022/08/17 07:49:07;;;;;;;46.50;26.77;;;19.30;99.90;;;;;;5073667;28;20071;-72
2022/08/17 07:51:52;;;;;;;43.10;26.27;;;19.20;99.90;;;;;;5073697;28;20080;-72
2022/08/17 07:54:22;;;;;;;41.17;26.00;;;19.30;99.90;;;;;;5073569;28;20040;-73
2022/08/17 07:56:56;;;;;;;38.97;26.02;;;19.30;99.90;;;;;;5073944;28;20393;-73
2022/08/17 07:59:37;;;;;;;37.85;25.05;;;19.30;99.90;;;;;;5072931;28;20511;-73
2022/08/17 08:02:37;;;;;;;40.42;25.83;;;19.30;99.90;;;;;;5074147;28;20055;-70
2022/08/17 08:05:17;;;;;;;34.60;24.67;;;19.30;99.90;;;;;;5073159;28;20065;-70
2022/08/17 08:08:16;;;;;;;35.08;24.88;;;19.30;99.90;;;;;;5055995;28;20045;-72
2022/08/17 08:10:42;;;;;;;38.42;25.33;;;19.30;99.90;;;;;;5073792;28;20063;-72
2022/08/17 08:13:22;;;;;;;38.38;24.45;;;19.30;99.90;;;;;;5073232;28;20400;-71
2022/08/17 08:16:11;;;;;;;36.65;23.70;;;19.40;99.90;;;;;;5073891;28;20052;-73
2022/08/17 08:18:44;;;;;;;34.90;24.23;;;19.40;99.90;;;;;;5065659;28;20044;-70
2022/08/17 08:21:34;;;;;;;38.05;25.23;;;19.50;99.90;;;;;;5056608;28;20086;-72
2022/08/17 08:24:25;;;;;;;38.95;24.98;;;19.50;99.90;;;;;;5055506;28;20049;-72
2022/08/17 08:27:08;;;;;;;40.15;26.85;;;19.60;99.90;;;;;;5072397;28;20056;-73
2022/08/17 08:29:53;;;;;;;39.13;26.75;;;19.70;99.90;;;;;;5072397;28;20514;-72
2022/08/17 08:32:47;;;;;;;38.90;26.73;;;19.70;99.90;;;;;;5073119;28;20159;-72
2022/08/17 08:35:33;;;;;;;36.13;26.85;;;19.70;99.90;;;;;;5073301;28;20049;-73
2022/08/17 08:38:14;;;;;;;38.20;26.85;;;19.90;99.90;;;;;;5072798;28;20445;-72
2022/08/17 08:41:19;;;;;;;36.70;26.42;;;19.90;99.90;;;;;;5073532;28;20051;-72
2022/08/17 08:44:09;;;;;;;40.50;27.08;;;20.00;99.90;;;;;;5072782;28;20063;-74
2022/08/17 08:46:54;;;;;;;48.33;28.73;;;20.00;99.90;;;;;;5072973;28;20143;-72
2022/08/17 08:49:38;;;;;;;46.13;30.02;;;20.00;99.90;;;;;;5073394;28;20044;-71
2022/08/17 08:52:12;;;;;;;39.88;26.65;;;20.10;99.90;;;;;;5073587;28;20091;-71
2022/08/17 08:54:57;;;;;;;44.47;29.02;;;20.10;99.90;;;;;;5073897;28;20053;-71
2022/08/17 08:57:38;;;;;;;39.25;28.52;;;20.10;99.90;;;;;;5073914;28;20040;-71
2022/08/17 09:00:18;;;;;;;41.90;28.58;;;20.10;99.90;;;;;;5072877;28;20048;-71
2022/08/17 09:03:03;;;;;;;44.13;31.25;;;20.20;99.90;;;;;;5076804;28;20097;-72
2022/08/17 09:05:41;;;;;;;40.05;29.17;;;20.20;99.90;;;;;;5076223;28;20132;-72
2022/08/17 09:08:15;;;;;;;38.33;28.85;;;20.30;99.90;;;;;;5076280;28;20044;-72
2022/08/17 09:10:49;;;;;;;40.25;29.48;;;20.40;99.90;;;;;;5076456;28;20048;-72
2022/08/17 09:13:40;;;;;;;37.88;29.13;;;20.40;99.90;;;;;;5077110;28;20141;-71
2022/08/17 09:16:19;;;;;;;40.90;29.10;;;20.60;99.90;;;;;;5076233;28;20054;-72
2022/08/17 09:18:55;;;;;;;42.80;31.50;;;20.50;99.90;;;;;;5076525;28;20265;-71
2022/08/17 09:21:39;;;;;;;35.28;28.38;;;20.60;99.90;;;;;;5074686;28;20071;-72
2022/08/17 09:24:18;;;;;;;42.17;29.23;;;20.60;99.90;;;;;;5075672;28;20053;-73
2022/08/17 09:26:53;;;;;;;36.22;25.35;;;20.60;99.90;;;;;;5076163;28;20055;-72
2022/08/17 09:29:24;;;;;;;41.65;28.58;;;20.70;99.90;;;;;;5074390;28;20055;-72
2022/08/17 09:31:56;;;;;;;42.92;31.33;;;20.70;99.90;;;;;;5075188;28;20044;-72
2022/08/17 09:34:50;;;;;;;40.97;31.05;;;20.80;99.90;;;;;;5074823;28;20056;-72
2022/08/17 09:37:28;;;;;;;39.83;30.15;;;20.80;99.90;;;;;;5075275;28;20055;-72
2022/08/17 09:40:21;;;;;;;39.35;29.77;;;20.90;99.90;;;;;;5075549;28;20040;-70
2022/08/17 09:43:01;;;;;;;40.42;30.50;;;20.90;99.90;;;;;;5074932;28;20056;-73
2022/08/17 09:45:33;;;;;;;41.05;28.17;;;21.00;99.90;;;;;;5075419;28;20090;-70
2022/08/17 09:48:10;;;;;;;37.25;27.10;;;21.00;99.90;;;;;;5074859;28;20037;-70
2022/08/17 09:50:45;;;;;;;39.83;28.65;;;21.10;99.90;;;;;;5074110;28;20074;-71
2022/08/17 09:53:11;;;;;;;43.65;29.40;;;21.10;99.90;;;;;;5075226;28;20054;-69
2022/08/17 09:56:01;;;;;;;41.90;29.77;;;21.20;99.90;;;;;;5075470;28;20048;-70
2022/08/17 09:58:48;;;;;;;39.42;29.00;;;21.20;99.90;;;;;;5074761;28;20044;-71
2022/08/17 10:01:22;;;;;;;42.50;29.35;;;21.20;99.90;;;;;;5075203;28;20056;-71
2022/08/17 10:04:02;;;;;;;38.17;30.17;;;21.20;99.90;;;;;;5074765;28;20037;-71
2022/08/17 10:06:38;;;;;;;37.17;30.00;;;21.20;99.90;;;;;;5074054;28;20400;-70
2022/08/17 10:09:12;;;;;;;35.90;29.02;;;21.20;99.90;;;;;;5075539;28;20047;-70
2022/08/17 10:14:29;;;;;;;33.97;28.02;;;21.20;99.90;;;;;;5075020;28;20149;-69
2022/08/17 10:17:07;;;;;;;32.92;28.10;;;21.20;99.90;;;;;;5074591;28;20044;-72
2022/08/17 10:20:10;;;;;;;34.13;26.80;;;21.20;99.90;;;;;;5073930;28;20102;-71
2022/08/17 10:28:39;;;;;;;33.22;26.17;;;21.20;99.90;;;;;;5073582;28;20045;-71
2022/08/17 10:31:08;;;;;;;34.20;25.65;;;21.20;99.90;;;;;;5074521;28;20140;-71
2022/08/17 10:34:07;;;;;;;32.10;26.33;;;21.30;99.90;;;;;;5073031;28;20041;-71
2022/08/17 10:36:39;;;;;;;36.92;28.45;;;21.30;99.90;;;;;;5073984;28;20141;-71
2022/08/17 10:39:34;;;;;;;39.83;30.17;;;21.40;99.90;;;;;;5074582;28;20451;-71
2022/08/17 10:42:15;;;;;;;36.20;27.20;;;21.40;99.90;;;;;;5073051;28;20044;-71
2022/08/17 10:44:59;;;;;;;42.88;29.33;;;21.50;99.90;;;;;;5074384;28;20100;-72
2022/08/17 10:47:51;;;;;;;37.63;29.40;;;21.60;99.90;;;;;;5073753;28;20051;-71
2022/08/17 10:50:56;;;;;;;34.00;26.80;;;21.60;99.90;;;;;;5074077;28;20048;-71
2022/08/17 10:53:31;;;;;;;34.75;27.52;;;21.70;99.90;;;;;;5055918;28;20503;-72
2022/08/17 10:56:12;;;;;;;36.28;27.55;;;21.70;99.90;;;;;;5073890;28;20045;-72
2022/08/17 10:58:56;;;;;;;35.85;28.10;;;21.70;99.90;;;;;;5073329;28;20044;-73
2022/08/17 11:01:31;;;;;;;40.67;28.63;;;21.70;99.90;;;;;;5072741;28;20101;-72
2022/08/17 11:04:20;;;;;;;36.40;28.55;;;21.80;99.90;;;;;;5072493;28;20084;-71
2022/08/17 11:07:01;;;;;;;40.20;28.55;;;21.80;99.90;;;;;;5073724;28;20060;-73
2022/08/17 11:09:46;;;;;;;41.30;30.17;;;21.80;99.90;;;;;;5073067;28;20098;-73
2022/08/17 11:12:25;;;;;;;39.80;30.45;;;21.80;99.90;;;;;;5073405;28;20149;-72
2022/08/17 11:15:06;;;;;;;40.92;30.80;;;21.90;99.90;;;;;;5073845;28;20094;-72
2022/08/17 11:18:08;;;;;;;38.35;29.73;;;21.90;99.90;;;;;;5073385;28;20145;-73
2022/08/17 11:20:55;;;;;;;36.53;29.05;;;21.80;99.90;;;;;;5073568;28;20051;-74
2022/08/17 11:23:51;;;;;;;37.35;27.25;;;21.90;99.90;;;;;;5074001;28;20048;-73
2022/08/17 11:26:24;;;;;;;36.60;27.35;;;21.90;99.90;;;;;;5055875;28;20052;-73
2022/08/17 11:28:57;;;;;;;36.40;28.00;;;21.80;99.90;;;;;;5073513;28;20109;-70
2022/08/17 11:31:28;;;;;;;36.22;27.25;;;21.90;99.90;;;;;;5073780;28;20048;-72
2022/08/17 11:34:03;;;;;;;33.00;26.15;;;21.90;99.90;;;;;;5073950;28;20504;-72
2022/08/17 11:36:39;;;;;;;33.75;26.75;;;21.90;99.90;;;;;;5073768;28;20094;-71
2022/08/17 11:39:23;;;;;;;38.05;28.77;;;21.90;99.90;;;;;;5073925;28;20041;-72
2022/08/17 11:42:25;;;;;;;37.30;28.63;;;21.90;99.90;;;;;;5074530;28;20040;-71
2022/08/17 11:44:53;;;;;;;39.60;29.48;;;21.90;99.90;;;;;;5056934;28;20051;-72
2022/08/17 11:53:38;;;;;;;42.50;31.33;;;22.10;99.90;;;;;;5074491;28;20088;-71
2022/08/17 11:56:09;;;;;;;42.35;30.42;;;22.20;99.90;;;;;;5073561;28;20095;-71
2022/08/17 11:58:41;;;;;;;38.10;29.35;;;22.20;99.90;;;;;;5074485;28;20105;-71
2022/08/17 12:01:22;;;;;;;34.13;27.77;;;22.30;99.90;;;;;;5074441;28;20053;-70
2022/08/17 12:03:56;;;;;;;34.53;26.77;;;22.40;99.90;;;;;;5073858;28;20420;-71
2022/08/17 12:06:46;;;;;;;32.95;26.45;;;22.40;99.90;;;;;;5074850;28;20056;-71
2022/08/17 12:09:23;;;;;;;30.23;24.95;;;22.50;99.90;;;;;;5073956;28;20048;-72
2022/08/17 12:11:58;;;;;;;33.08;26.00;;;22.50;99.90;;;;;;5073727;28;20044;-71
2022/08/17 12:14:31;;;;;;;32.20;25.25;;;22.60;99.90;;;;;;5073564;28;20396;-72
2022/08/17 12:17:11;;;;;;;30.00;24.55;;;22.60;99.90;;;;;;5073766;28;20392;-71
2022/08/17 12:19:38;;;;;;;31.52;26.02;;;22.60;99.90;;;;;;5056107;28;20048;-71
2022/08/17 12:22:30;;;;;;;31.95;24.58;;;22.60;99.90;;;;;;5072211;28;20051;-72
2022/08/17 12:25:09;;;;;;;30.40;24.77;;;22.60;99.90;;;;;;5073248;28;20080;-72
2022/08/17 12:27:43;;;;;;;32.28;25.33;;;22.50;99.90;;;;;;5073622;28;20066;-72
2022/08/17 12:30:14;;;;;;;28.40;25.23;;;22.50;99.90;;;;;;5073402;28;20051;-71
2022/08/17 12:32:40;;;;;;;32.85;25.10;;;22.60;99.90;;;;;;5072612;28;20393;-72
2022/08/17 12:35:34;;;;;;;32.35;24.52;;;22.60;99.90;;;;;;5073840;28;20135;-71
2022/08/17 12:38:05;;;;;;;30.13;25.40;;;22.40;99.90;;;;;;5076037;28;20040;-71
2022/08/17 12:40:31;;;;;;;32.00;26.80;;;22.60;99.90;;;;;;5059799;28;20048;-72
2022/08/17 12:43:07;;;;;;;32.88;26.27;;;22.50;99.90;;;;;;5076091;28;20102;-71
2022/08/17 12:45:38;;;;;;;31.52;25.58;;;22.50;99.90;;;;;;5077095;28;20052;-71
2022/08/17 12:48:12;;;;;;;33.83;26.45;;;22.50;99.90;;;;;;5076911;28;20053;-71
2022/08/17 12:50:43;;;;;;;32.55;25.83;;;22.50;99.90;;;;;;5077584;28;20056;-71
2022/08/17 12:53:15;;;;;;;31.13;26.45;;;22.40;99.90;;;;;;5077563;28;20123;-74
2022/08/17 12:55:41;;;;;;;30.70;25.42;;;22.50;99.90;;;;;;5076913;28;20044;-71
2022/08/17 12:58:13;;;;;;;29.05;23.88;;;22.50;99.90;;;;;;5076817;28;20041;-71
2022/08/17 13:00:47;;;;;;;30.20;24.50;;;22.50;99.90;;;;;;5077649;28;20217;-71
2022/08/17 13:03:18;;;;;;;27.05;22.08;;;22.50;99.90;;;;;;5077338;28;20055;-72
2022/08/17 13:05:52;;;;;;;26.13;22.25;;;22.50;99.90;;;;;;5075074;28;20559;-71
2022/08/17 13:08:27;;;;;;;25.52;21.90;;;22.60;99.90;;;;;;5076547;28;20084;-72
2022/08/17 13:10:56;;;;;;;27.23;21.30;;;22.60;99.90;;;;;;5075471;28;20123;-72
2022/08/17 13:13:28;;;;;;;25.25;21.50;;;22.60;99.90;;;;;;5075353;28;20163;-72
2022/08/17 13:15:55;;;;;;;23.27;20.40;;;22.50;99.90;;;;;;5076473;28;20135;-71
2022/08/17 13:18:35;;;;;;;22.77;20.38;;;22.50;99.90;;;;;;5076643;28;20049;-74
2022/08/17 13:21:01;;;;;;;23.48;19.85;;;22.50;99.90;;;;;;5077032;28;20056;-72
2022/08/17 13:23:30;;;;;;;22.50;20.10;;;22.50;99.90;;;;;;5075138;28;20093;-71
2022/08/17 13:26:03;;;;;;;22.27;19.80;;;22.50;99.90;;;;;;5076577;28;20071;-71
2022/08/17 13:28:31;;;;;;;22.70;19.80;;;22.50;99.90;;;;;;5075880;28;20123;-71
2022/08/17 13:31:26;;;;;;;23.17;19.52;;;22.50;99.90;;;;;;5076276;28;20049;-71
2022/08/17 13:34:31;;;;;;;26.58;20.15;;;22.50;99.90;;;;;;5075958;28;20397;-72
2022/08/17 13:39:50;;;;;;;21.02;18.20;;;22.50;99.90;;;;;;5076816;28;20354;-72